Terminal Aerodrome Forecast
Issued by NWS

Home | Current Version | Previous Version | Text Only | Print | Product List | Glossary On
Versions: 1 2 3 4 5 6 7 8 9 10 11 12 13 14
985
FTUS45 KTFX 221120
TAFHLN
TAF
KHLN 221120Z 2212/2312 VRB05KT P6SM SCT060 BKN100
      TEMPO 2216/2219 -SHRA BKN060
     FM221900 02011KT P6SM VCTS SCT040CB BKN070 PROB30 2221/2301
      TSRA BKN040CB
     FM230200 VRB06KT P6SM VCSH SCT035 BKN060=

USA.gov is the U.S. government's official web portal to all federal, state and local government web resources and services.